Latest Weather Observations for Bourke

IDN60801

Issued at 2:52 pm EDT Sunday 17 February 2019 (issued every 10 minutes, with the page automatically refreshed every 10 minutes)

About weather observations | Map of weather stations | Latest weather observations for NSW | Other Formats
Station Details ID: 048245 Name: BOURKE AIRPORT AWS Lat: -30.04 Lon: 145.95 Height: 107.3 m
Data from the previous 72 hours. | See also: Recent months at Bourke
Date/Time
EDT
Temp
°C
App
Temp
°C
Dew
Point
°C
Rel
Hum
%
Delta-T
°C
Wind Press
QNH
hPa
Press
MSL
hPa
Rain since
9am
mm
Dir  Spd
km/h
Gust
km/h
Spd
kts
Gust
kts
17/02:30pm 37.8 35.5 4.7 13 18.0 NNW 6 11 3 6 1009.3 1008.6 0.0
17/02:00pm 37.4 33.9 5.4 14 17.5 N 13 20 7 11 1009.9 1009.1 0.0
17/01:30pm 38.1 34.3 6.0 14 17.8 NNE 15 24 8 13 1010.2 1009.4 0.0
17/01:00pm 37.6 33.8 5.6 14 17.6 NE 15 24 8 13 1010.7 1010.0 0.0
17/12:30pm 36.9 33.7 5.0 14 17.3 NNE 11 20 6 11 1011.3 1010.6 0.0
17/12:00pm 36.8 33.2 4.9 14 17.3 NE 13 20 7 11 1011.8 1011.1 0.0
17/11:30am 35.5 31.5 4.9 15 16.5 NNE 15 20 8 11 1012.2 1011.5 0.0
17/11:00am 34.2 30.2 4.8 16 15.7 NE 15 24 8 13 1012.5 1011.8 0.0
17/10:30am 32.7 28.8 5.3 18 14.6 NE 15 22 8 12 1012.6 1011.9 0.0
17/10:00am 31.3 27.1 5.7 20 13.6 ENE 17 24 9 13 1012.6 1011.9 0.0
17/09:30am 31.0 27.6 6.1 21 13.3 NE 13 22 7 12 1012.5 1011.8 0.0
17/09:00am 29.4 26.4 6.1 23 12.4 ENE 11 17 6 9 1012.5 1011.8 0.0
17/08:30am 27.2 23.8 6.0 26 11.1 E 13 15 7 8 1012.5 1011.8 0.0
17/08:00am 26.0 23.0 6.1 28 10.4 E 11 15 6 8 1012.3 1011.6 0.0
17/07:30am 24.5 21.9 6.3 31 9.4 E 9 13 5 7 1011.9 1011.2 0.0
17/07:00am 23.6 21.0 6.0 32 9.0 E 9 11 5 6 1011.6 1010.9 0.0
17/06:30am 24.2 21.6 6.0 31 9.3 E 9 11 5 6 1011.3 1010.6 0.0
17/06:00am 24.9 21.9 6.1 30 9.7 E 11 15 6 8 1011.0 1010.3 0.0
17/05:30am 24.7 21.7 6.0 30 9.6 E 11 13 6 7 1010.6 1009.9 0.0
17/05:00am 25.1 22.5 6.3 30 9.8 E 9 11 5 6 1010.7 1010.0 0.0
17/04:30am 26.0 23.0 6.1 28 10.4 ESE 11 13 6 7 1010.8 1010.1 0.0
17/04:00am 26.6 23.3 6.6 28 10.5 E 13 17 7 9 1010.8 1010.1 0.0
17/03:30am 26.9 23.6 6.3 27 10.8 E 13 15 7 8 1010.8 1010.1 0.0
17/03:00am 27.6 24.4 6.9 27 11.0 E 13 17 7 9 1010.9 1010.2 0.0
17/02:30am 27.9 25.0 6.6 26 11.3 E 11 15 6 8 1011.0 1010.3 0.0
17/02:00am 28.2 24.9 6.3 25 11.6 ESE 13 15 7 8 1011.3 1010.6 0.0
17/01:30am 28.5 25.2 6.6 25 11.7 ESE 13 17 7 9 1011.5 1010.8 0.0
17/01:00am 28.9 25.7 6.9 25 11.8 ESE 13 17 7 9 1011.7 1011.0 0.0
17/12:30am 29.5 26.3 6.8 24 12.2 E 13 17 7 9 1011.9 1011.2 0.0
17/12:00am 29.3 26.4 6.7 24 12.1 E 11 13 6 7 1012.1 1011.4 0.0
 
Date/Time
EDT
Temp
°C
App
Temp
°C
Dew
Point
°C
Rel
Hum
%
Delta-T
°C
Wind Press
QNH
hPa
Press
MSL
hPa
Rain since
9am
mm
Dir  Spd
km/h
Gust
km/h
Spd
kts
Gust
kts
16/11:30pm 30.7 27.4 6.6 22 13.0 ESE 13 17 7 9 1011.9 1011.2 0.0
16/11:00pm 31.3 27.8 7.1 22 13.2 ESE 15 20 8 11 1011.9 1011.2 0.0
16/10:30pm 31.7 28.5 6.7 21 13.6 E 13 17 7 9 1011.8 1011.1 0.0
16/10:00pm 32.3 29.2 7.2 21 13.8 E 13 17 7 9 1011.6 1010.9 0.0
16/09:30pm 32.5 29.3 6.7 20 14.1 E 13 15 7 8 1011.2 1010.5 0.0
16/09:00pm 32.6 30.0 6.0 19 14.4 E 9 11 5 6 1011.0 1010.3 0.0
16/08:30pm 34.0 31.1 6.3 18 15.1 E 11 15 6 8 1010.7 1010.0 0.0
16/08:00pm 34.9 32.3 6.2 17 15.7 ESE 9 13 5 7 1010.3 1009.5 0.0
16/07:30pm 36.0 32.7 6.2 16 16.4 ESE 13 17 7 9 1010.1 1009.3 0.0
16/07:00pm 36.5 33.1 5.7 15 16.9 SSE 13 20 7 11 1010.2 1009.4 0.0
16/06:30pm 36.9 32.8 6.0 15 17.0 SE 17 24 9 13 1010.3 1009.5 0.0
16/06:00pm 36.9 32.5 5.0 14 17.3 SSE 17 22 9 12 1010.5 1009.8 0.0
16/05:30pm 37.1 34.5 6.2 15 17.1 NE 9 20 5 11 1010.6 1009.9 0.0
16/05:00pm 37.7 33.1 6.6 15 17.4 S 20 30 11 16 1010.9 1010.2 0.0
16/04:30pm 37.3 34.7 6.3 15 17.2 S 9 17 5 9 1011.1 1010.4 0.0
16/04:00pm 37.2 35.4 8.1 17 16.6 N 7 13 4 7 1011.6 1010.9 0.0
16/03:30pm 36.5 33.5 7.5 17 16.3 ESE 13 26 7 14 1012.2 1011.5 0.0
16/03:00pm 37.8 34.5 9.4 18 16.5 E 17 24 9 13 1012.6 1011.9 0.0
16/02:30pm 36.4 33.9 9.8 20 15.5 ENE 13 22 7 12 1013.0 1012.3 0.0
16/02:00pm 35.9 32.0 8.7 19 15.5 NE 19 28 10 15 1013.7 1013.0 0.0
16/01:30pm 34.9 31.5 10.7 23 14.2 NE 19 28 10 15 1014.1 1013.4 0.0
16/01:00pm 34.3 30.6 10.2 23 14.0 E 20 26 11 14 1014.8 1014.1 0.0
16/12:30pm 33.5 29.8 11.4 26 13.0 ENE 22 32 12 17 1015.3 1014.6 0.0
16/12:00pm 32.8 29.0 11.3 27 12.6 E 22 32 12 17 1015.8 1015.1 0.0
16/11:30am 32.0 28.0 11.7 28 11.9 ENE 24 33 13 18 1016.1 1015.4 0.0
16/11:00am 31.1 27.0 11.5 30 11.4 ENE 24 37 13 20 1016.4 1015.7 0.0
16/10:30am 29.9 24.9 10.9 31 10.9 ENE 28 35 15 19 1016.5 1015.8 0.0
16/10:00am 28.9 23.2 11.0 33 10.3 ENE 32 41 17 22 1016.4 1015.7 0.0
16/09:30am 27.8 21.8 10.1 33 10.0 ENE 32 41 17 22 1016.4 1015.7 0.0
16/09:08am 27.3 21.9 9.6 33 9.9 ENE 28 48 15 26 1016.3 1015.6 0.0
16/09:00am 27.7 22.8 10.0 33 9.9 ENE 26 41 14 22 1016.3 1015.6 0.0
16/08:30am 26.7 21.8 8.6 32 9.9 E 24 32 13 17 1016.2 1015.5 0.0
16/08:00am 25.9 21.8 8.0 32 9.6 E 19 28 10 15 1015.9 1015.2 0.0
16/07:30am 25.3 20.9 6.5 30 9.8 E 19 26 10 14 1015.5 1014.8 0.0
16/07:00am 25.2 21.1 6.4 30 9.8 E 17 20 9 11 1015.1 1014.4 0.0
16/06:30am 25.4 20.9 6.1 29 10.0 E 19 26 10 14 1014.6 1013.9 0.0
16/06:00am 25.7 21.5 5.8 28 10.3 E 17 22 9 12 1014.5 1013.8 0.0
16/05:30am 25.8 21.9 5.4 27 10.5 E 15 20 8 11 1014.3 1013.6 0.0
16/05:00am 26.5 22.3 5.5 26 10.8 E 17 24 9 13 1014.1 1013.4 0.0
16/04:30am 27.0 22.1 5.3 25 11.2 E 20 28 11 15 1013.8 1013.1 0.0
16/04:00am 27.4 22.8 5.6 25 11.3 ESE 19 26 10 14 1013.8 1013.1 0.0
16/03:30am 27.7 23.5 5.9 25 11.4 ESE 17 22 9 12 1013.7 1013.0 0.0
16/03:00am 28.3 23.7 5.8 24 11.8 ESE 19 26 10 14 1013.6 1012.9 0.0
16/02:30am 28.5 24.1 6.6 25 11.7 ESE 19 24 10 13 1013.7 1013.0 0.0
16/02:00am 28.6 25.1 7.2 26 11.5 ESE 15 20 8 11 1014.0 1013.3 0.0
16/01:30am 29.1 25.3 7.7 26 11.6 ESE 17 22 9 12 1014.3 1013.6 0.0
16/01:00am 29.5 25.9 8.5 27 11.6 ESE 17 22 9 12 1014.5 1013.8 0.0
16/12:30am 29.9 26.4 8.9 27 11.7 ESE 17 20 9 11 1014.7 1014.0 0.0
16/12:00am 30.2 26.8 9.1 27 11.8 ESE 17 20 9 11 1014.7 1014.0 0.0
 
Date/Time
EDT
Temp
°C
App
Temp
°C
Dew
Point
°C
Rel
Hum
%
Delta-T
°C
Wind Press
QNH
hPa
Press
MSL
hPa
Rain since
9am
mm
Dir  Spd
km/h
Gust
km/h
Spd
kts
Gust
kts
15/11:30pm 30.3 27.7 9.2 27 11.8 SE 13 17 7 9 1014.7 1014.0 0.0
15/11:00pm 30.8 27.8 9.1 26 12.2 ESE 15 17 8 9 1014.7 1014.0 0.0
15/10:30pm 31.3 28.7 9.5 26 12.4 ESE 13 19 7 10 1014.8 1014.1 0.0
15/10:00pm 31.9 28.9 9.4 25 12.8 ESE 15 20 8 11 1014.7 1014.0 0.0
15/09:30pm 32.2 29.2 9.1 24 13.1 ESE 15 19 8 10 1014.2 1013.5 0.0
15/09:00pm 32.8 29.7 8.9 23 13.5 ESE 15 20 8 11 1013.8 1013.1 0.0
15/08:30pm 33.4 30.3 8.8 22 13.9 ESE 15 19 8 10 1013.6 1012.9 0.0
15/08:00pm 33.9 30.5 9.2 22 14.1 ESE 17 24 9 13 1013.5 1012.8 0.0
15/07:30pm 34.6 31.0 9.8 22 14.3 ESE 19 28 10 15 1013.1 1012.4 0.0
15/07:00pm 34.9 31.2 9.3 21 14.7 ESE 19 26 10 14 1013.0 1012.3 0.0
15/06:30pm 35.8 33.2 9.3 20 15.3 ENE 13 26 7 14 1013.0 1012.3 0.0
15/06:00pm 35.8 33.0 10.1 21 15.0 ESE 15 20 8 11 1012.9 1012.2 0.0
15/05:30pm 36.6 32.9 10.0 20 15.6 ESE 20 33 11 18 1012.9 1012.2 0.0
15/05:00pm 36.3 32.3 10.5 21 15.2 ESE 22 32 12 17 1013.0 1012.3 0.0
15/04:30pm 35.4 32.0 10.4 22 14.6 SE 19 28 10 15 1013.3 1012.6 0.0
15/04:00pm 35.5 32.3 9.8 21 14.9 E 17 26 9 14 1013.7 1013.0 0.0
15/03:30pm 35.6 31.3 10.6 22 14.7 ESE 24 35 13 19 1014.1 1013.4 0.0
15/03:00pm 35.3 32.4 12.3 25 13.8 E 19 32 10 17 1014.5 1013.8 0.0
15/02:30pm 33.6 31.0 12.0 27 12.9 NE 17 30 9 16 1015.1 1014.4 0.0
15/02:00pm 33.3 30.8 12.3 28 12.5 ENE 17 33 9 18 1015.7 1015.0 0.0
15/01:30pm 33.2 30.5 12.8 29 12.3 E 19 33 10 18 1016.3 1015.6 0.0
15/01:00pm 33.0 30.2 13.1 30 12.0 E 20 35 11 19 1016.7 1016.0 0.0
15/12:30pm 32.2 29.2 12.4 30 11.8 E 20 35 11 19 1017.2 1016.5 0.0
15/12:00pm 32.0 28.7 12.8 31 11.5 E 22 30 12 16 1017.7 1017.0 0.0
15/11:30am 31.4 28.6 13.2 33 10.9 E 20 32 11 17 1018.0 1017.3 0.0
15/11:00am 29.9 26.2 12.8 35 10.1 E 24 35 13 19 1018.2 1017.5 0.0
15/10:30am 29.0 24.6 12.8 36 9.6 ENE 28 39 15 21 1018.1 1017.4 0.0
15/10:00am 28.8 24.2 13.5 39 9.1 E 30 39 16 21 1017.8 1017.1 0.0
15/09:30am 27.7 22.5 13.3 41 8.5 ENE 33 46 18 25 1017.6 1016.9 0.0
15/09:00am 27.2 23.8 12.4 40 8.6 E 22 30 12 16 1017.5 1016.8 0.0
15/08:30am 26.1 21.8 12.2 42 8.0 E 26 37 14 20 1017.3 1016.6 0.0
15/08:00am 25.5 20.7 11.7 42 7.9 ESE 28 35 15 19 1016.9 1016.2 0.0
15/07:30am 24.8 20.5 10.7 41 7.9 ESE 24 32 13 17 1016.4 1015.7 0.0
15/07:00am 24.5 20.6 9.6 39 8.2 ESE 20 30 11 16 1015.9 1015.2 0.0
15/06:30am 24.6 20.6 8.1 35 8.8 SE 19 26 10 14 1015.5 1014.8 0.0
15/06:00am 24.6 20.5 6.4 31 9.4 SE 17 20 9 11 1015.2 1014.5 0.0
15/05:30am 24.8 20.1 5.1 28 10.0 SE 19 24 10 13 1014.8 1014.1 0.0
15/05:00am 24.9 19.9 3.5 25 10.5 SE 19 26 10 14 1014.7 1014.0 0.0
15/04:30am 25.0 20.3 3.0 24 10.8 SSE 17 20 9 11 1014.7 1014.0 0.0
15/04:00am 25.5 20.2 2.9 23 11.1 SSE 20 28 11 15 1014.6 1013.9 0.0
15/03:30am 25.7 20.6 3.0 23 11.1 SSE 19 26 10 14 1014.6 1013.9 0.0
15/03:00am 26.0 20.6 2.7 22 11.4 SSE 20 26 11 14 1014.6 1013.9 0.0
15/02:30am 26.2 20.9 2.8 22 11.5 SSE 20 28 11 15 1014.7 1014.0 0.0
15/02:00am 26.7 21.7 4.5 24 11.3 SSE 20 30 11 16 1014.8 1014.1 0.0
15/01:30am 26.9 23.1 7.4 29 10.4 SSE 17 24 9 13 1014.9 1014.2 0.0
15/01:00am 27.4 23.7 7.8 29 10.6 SSE 17 26 9 14 1014.9 1014.2 0.0
15/12:30am 27.7 24.5 8.6 30 10.5 SSE 15 20 8 11 1014.8 1014.1 0.0
15/12:00am 28.2 24.3 8.5 29 10.8 SSE 19 22 10 12 1014.7 1014.0 0.0
 
Date/Time
EDT
Temp
°C
App
Temp
°C
Dew
Point
°C
Rel
Hum
%
Delta-T
°C
Wind Press
QNH
hPa
Press
MSL
hPa
Rain since
9am
mm
Dir  Spd
km/h
Gust
km/h
Spd
kts
Gust
kts
14/11:30pm 28.3 25.0 8.1 28 11.0 S 15 20 8 11 1014.7 1014.0 0.0
14/11:00pm 28.5 25.1 7.7 27 11.3 S 15 20 8 11 1014.6 1013.9 0.0
14/10:30pm 28.7 25.7 7.9 27 11.3 S 13 19 7 10 1014.5 1013.8 0.0
14/10:00pm 29.0 26.0 7.6 26 11.6 S 13 19 7 10 1014.2 1013.5 0.0
14/09:30pm 29.0 26.5 6.4 24 12.0 S 9 13 5 7 1013.9 1013.2 0.0
14/09:00pm 30.1 27.2 6.7 23 12.6 SSE 11 15 6 8 1013.5 1012.8 0.0
14/08:30pm 30.6 27.7 6.5 22 13.0 SSE 11 13 6 7 1013.2 1012.5 0.0
14/08:00pm 31.6 27.6 6.6 21 13.5 SE 17 24 9 13 1013.0 1012.3 0.0
14/07:30pm 32.4 28.6 5.8 19 14.3 SSE 15 20 8 11 1012.7 1012.0 0.0
14/07:00pm 32.5 28.2 5.1 18 14.6 S 17 22 9 12 1012.4 1011.7 0.0
14/06:30pm 32.6 28.0 3.5 16 15.1 SE 17 26 9 14 1012.3 1011.6 0.0
14/06:05pm 32.9 27.8 2.9 15 15.4 SSE 19 44 10 24 1012.3 1011.6 0.0
14/06:00pm 32.5 28.2 3.5 16 15.0 SSE 15 20 8 11 1012.3 1011.6 0.0
14/05:30pm 32.9 29.5 3.8 16 15.2 SSE 11 26 6 14 1012.3 1011.6 0.0
14/05:00pm 32.6 27.4 3.5 16 15.1 SSE 20 35 11 19 1012.5 1011.8 0.0
14/04:30pm 32.1 26.3 2.2 15 15.1 SSE 22 33 12 18 1012.8 1012.1 0.0
14/04:00pm 31.8 26.5 2.0 15 15.0 SE 19 30 10 16 1013.0 1012.3 0.0
14/03:30pm 31.8 26.9 2.0 15 15.0 SSE 17 32 9 17 1013.3 1012.6 0.0
14/03:00pm 30.9 25.4 0.3 14 14.8 S 19 32 10 17 1013.7 1013.0 0.0

Other Formats:

Comma delimited format used in spreadsheet applications
http://www.bom.gov.au/fwo/IDN60801/IDN60801.94703.axf

JavaScript Object Notation format (JSON) in row-major order
http://www.bom.gov.au/fwo/IDN60801/IDN60801.94703.json